createdAt,value
2022-11-18T00:00:54.895Z,98.87
2022-11-18T00:03:22.173Z,98.80
2022-11-18T00:05:57.318Z,98.40
2022-11-18T02:14:43.957Z,100.00
2022-11-18T02:17:20.085Z,100.00
2022-11-18T02:19:56.059Z,100.00
2022-11-18T02:23:05.622Z,100.00
2022-11-18T02:25:51.368Z,100.00
2022-11-18T02:28:30.331Z,100.00
2022-11-18T02:31:23.593Z,100.00
2022-11-18T02:34:16.970Z,100.00
2022-11-18T02:36:51.762Z,100.00
2022-11-18T02:39:35.620Z,100.00
2022-11-18T02:42:08.473Z,100.00
2022-11-18T02:44:38.616Z,100.00
2022-11-18T02:47:09.724Z,100.00
2022-11-18T02:49:41.212Z,100.00
2022-11-18T02:52:10.706Z,100.00
2022-11-18T02:54:41.386Z,100.00
2022-11-18T02:57:09.725Z,100.00
2022-11-18T02:59:36.766Z,100.00
2022-11-18T03:02:04.265Z,100.00
2022-11-18T03:04:32.906Z,100.00
2022-11-18T03:07:13.372Z,100.00
2022-11-18T03:09:44.381Z,100.00
2022-11-18T03:12:23.049Z,100.00
2022-11-18T03:15:12.935Z,99.98
2022-11-18T03:18:07.932Z,99.38
2022-11-18T03:20:58.221Z,99.32
2022-11-18T03:23:25.164Z,99.60
2022-11-18T03:26:01.519Z,99.99
2022-11-18T03:28:36.749Z,99.56
2022-11-18T03:31:16.336Z,99.49
2022-11-18T03:33:52.579Z,99.64
2022-11-18T03:36:24.348Z,99.55
2022-11-18T03:38:57.301Z,99.29
2022-11-18T03:41:26.572Z,99.00
2022-11-18T03:44:07.965Z,98.66
2022-11-18T03:46:44.518Z,98.62
2022-11-18T03:49:17.664Z,98.47
2022-11-18T03:51:57.008Z,98.36
2022-11-18T03:54:31.167Z,98.21
2022-11-18T03:57:02.288Z,98.19
2022-11-18T03:59:41.188Z,98.26
2022-11-18T04:02:17.185Z,97.85
2022-11-18T04:04:47.554Z,97.80
2022-11-18T04:07:27.062Z,97.47
2022-11-18T04:10:07.213Z,97.47
2022-11-18T04:12:39.827Z,97.26
2022-11-18T04:15:07.318Z,96.80
2022-11-18T04:17:34.427Z,96.49
2022-11-18T04:20:01.513Z,96.16
2022-11-18T04:22:28.470Z,96.24
2022-11-18T04:24:55.402Z,96.05
2022-11-18T04:27:22.357Z,95.64
2022-11-18T04:29:49.339Z,95.28
2022-11-18T04:32:16.278Z,94.85
2022-11-18T04:34:43.181Z,94.58
2022-11-18T04:37:10.241Z,94.98
2022-11-18T04:39:37.233Z,95.04
2022-11-18T04:42:04.263Z,95.27
2022-11-18T04:44:33.302Z,95.13
2022-11-18T04:47:03.735Z,95.73
2022-11-18T04:49:31.985Z,95.27
2022-11-18T04:52:00.029Z,95.19
2022-11-18T04:54:27.598Z,95.47
2022-11-18T04:56:55.549Z,95.00
2022-11-18T04:59:25.532Z,95.25
2022-11-18T05:01:53.521Z,95.48
2022-11-18T05:04:23.506Z,95.55
2022-11-18T05:06:51.046Z,94.84
2022-11-18T05:09:19.220Z,94.93
2022-11-18T05:12:05.537Z,94.71
2022-11-18T05:14:32.811Z,95.04
2022-11-18T05:17:01.698Z,95.29
2022-11-18T05:19:29.285Z,95.18
2022-11-18T05:21:56.797Z,94.95
2022-11-18T05:24:26.815Z,94.96
2022-11-18T05:26:55.543Z,94.97
2022-11-18T05:29:23.569Z,94.41
2022-11-18T05:31:50.761Z,94.27
2022-11-18T05:34:17.772Z,93.62
2022-11-18T05:36:44.964Z,94.08
2022-11-18T05:39:12.009Z,94.41
2022-11-18T05:41:57.367Z,94.76
2022-11-18T05:44:24.279Z,95.00
2022-11-18T05:46:51.254Z,94.77
2022-11-18T05:49:18.570Z,93.87
2022-11-18T05:51:45.531Z,93.62
2022-11-18T05:54:15.093Z,93.62
2022-11-18T06:09:54.430Z,88.13
2022-11-18T06:12:27.056Z,88.16
2022-11-18T06:15:03.527Z,88.68
2022-11-18T06:17:39.457Z,89.20
2022-11-18T06:20:07.215Z,89.58
2022-11-18T06:22:35.951Z,90.31
2022-11-18T06:25:03.717Z,90.62
2022-11-18T06:27:31.567Z,90.55
2022-11-18T06:29:58.878Z,90.67
2022-11-18T06:32:25.870Z,90.76
2022-11-18T06:34:52.964Z,91.03
2022-11-18T06:37:23.279Z,91.60
2022-11-18T06:39:50.465Z,91.83
2022-11-18T06:42:36.191Z,91.49
2022-11-18T06:45:04.810Z,91.13
2022-11-18T06:47:32.122Z,91.02
2022-11-18T06:49:59.308Z,90.55
2022-11-18T06:52:26.494Z,90.28
2022-11-18T06:54:53.633Z,91.07
2022-11-18T06:57:20.693Z,90.88
2022-11-18T06:59:47.862Z,90.94
2022-11-18T07:02:15.149Z,91.07
2022-11-18T07:04:42.205Z,91.73
2022-11-18T07:07:09.475Z,91.37
2022-11-18T07:09:37.642Z,90.76
2022-11-18T07:12:05.152Z,89.26
2022-11-18T07:14:32.530Z,88.83
2022-11-18T07:16:59.596Z,88.49
2022-11-18T07:19:29.065Z,87.55
2022-11-18T07:22:00.369Z,87.95
2022-11-18T07:24:27.600Z,87.94
2022-11-18T07:26:54.631Z,86.70
2022-11-18T07:29:21.669Z,87.05
2022-11-18T07:31:48.699Z,85.31
2022-11-18T07:34:15.783Z,86.68
2022-11-18T07:36:43.356Z,87.01
2022-11-18T07:39:10.479Z,86.53
2022-11-18T07:41:40.379Z,86.13
2022-11-18T07:44:07.880Z,86.78
2022-11-18T07:46:37.517Z,87.02
2022-11-18T07:49:06.775Z,86.32
2022-11-18T07:51:36.539Z,86.19
2022-11-18T07:54:12.508Z,85.92
2022-11-18T07:56:40.098Z,83.90
2022-11-18T07:59:07.909Z,85.02
2022-11-18T08:01:35.049Z,83.25
2022-11-18T08:04:07.970Z,82.98
2022-11-18T08:06:36.164Z,83.67
2022-11-18T08:09:04.720Z,82.87
2022-11-18T08:11:31.959Z,83.23
2022-11-18T08:13:58.972Z,84.57
2022-11-18T08:16:26.689Z,84.88
2022-11-18T08:18:53.882Z,83.80
2022-11-18T08:21:22.784Z,85.05
2022-11-18T08:23:55.332Z,84.76
2022-11-18T08:26:23.827Z,84.55
2022-11-18T08:28:51.314Z,84.60
2022-11-18T08:31:19.984Z,85.03
2022-11-18T08:33:47.446Z,84.49
2022-11-18T08:36:22.273Z,84.67
2022-11-18T08:38:49.534Z,83.06
2022-11-18T08:41:21.654Z,82.98
2022-11-18T08:43:48.796Z,82.81
2022-11-18T08:46:15.712Z,82.72
2022-11-18T08:48:42.814Z,83.21
2022-11-18T08:51:12.985Z,82.84
2022-11-18T08:53:40.629Z,81.61
2022-11-18T08:56:08.373Z,81.85
2022-11-18T08:58:35.667Z,82.77
2022-11-18T09:01:07.207Z,83.47
2022-11-18T09:03:34.699Z,83.32
2022-11-18T09:06:13.622Z,83.41
2022-11-18T09:08:41.437Z,83.37
2022-11-18T09:11:10.699Z,83.62
2022-11-18T09:14:00.932Z,84.12
2022-11-18T09:16:28.361Z,84.47
2022-11-18T09:18:57.802Z,84.47
2022-11-18T09:21:26.343Z,84.26
2022-11-18T09:23:53.800Z,84.16
2022-11-18T09:26:24.208Z,83.33
2022-11-18T09:28:54.794Z,83.69
2022-11-18T09:31:22.171Z,83.30
2022-11-18T09:33:49.271Z,83.09
2022-11-18T09:36:19.682Z,83.25
2022-11-18T09:38:51.666Z,83.89
2022-11-18T09:41:41.619Z,83.90
2022-11-18T09:44:37.246Z,83.69
2022-11-18T09:47:19.378Z,83.74
2022-11-18T09:49:46.910Z,83.35
2022-11-18T09:52:36.942Z,83.67
2022-11-18T09:55:15.584Z,83.85
2022-11-18T09:57:51.780Z,84.56
2022-11-18T10:00:30.429Z,84.67
2022-11-18T10:03:02.551Z,83.79
2022-11-18T10:05:33.389Z,83.19
2022-11-18T10:08:26.877Z,83.12
2022-11-18T10:11:16.992Z,82.09
2022-11-18T10:14:08.581Z,80.13
2022-11-18T10:16:39.584Z,80.72
2022-11-18T10:19:47.574Z,80.35
2022-11-18T10:22:21.069Z,81.46
2022-11-18T10:24:56.635Z,80.70
2022-11-18T10:27:26.430Z,81.03
2022-11-18T10:29:57.506Z,80.68
2022-11-18T10:32:24.759Z,78.96
2022-11-18T10:34:57.880Z,80.11
2022-11-18T10:37:45.837Z,79.01
2022-11-18T10:40:26.242Z,78.79
2022-11-18T10:42:53.800Z,78.83
2022-11-18T10:45:24.147Z,79.77
2022-11-18T10:48:15.597Z,80.16
2022-11-18T10:50:46.441Z,79.53
2022-11-18T10:53:32.628Z,78.80
2022-11-18T10:56:05.556Z,78.59
2022-11-18T10:58:39.295Z,78.55
2022-11-18T11:01:23.057Z,79.50
2022-11-18T11:04:12.396Z,78.90
2022-11-18T11:06:39.597Z,79.38
2022-11-18T11:09:25.274Z,79.47
2022-11-18T11:12:04.747Z,79.36
2022-11-18T11:14:53.613Z,78.92
2022-11-18T11:17:27.537Z,79.14
2022-11-18T11:20:15.682Z,78.55
2022-11-18T11:22:43.019Z,79.09
2022-11-18T11:25:19.213Z,78.75
2022-11-18T11:28:17.443Z,79.44
2022-11-18T11:31:40.141Z,79.55
2022-11-18T11:34:36.496Z,79.58
2022-11-18T11:37:09.386Z,79.03
2022-11-18T11:39:51.002Z,79.13
2022-11-18T11:42:37.434Z,79.69
2022-11-18T11:45:25.015Z,78.99
2022-11-18T11:48:29.248Z,79.38
2022-11-18T11:51:05.289Z,79.70
2022-11-18T11:53:50.170Z,79.06
2022-11-18T11:56:41.058Z,79.86
2022-11-18T11:59:11.165Z,79.69
2022-11-18T12:02:12.187Z,80.13
2022-11-18T12:04:52.750Z,80.04
2022-11-18T12:07:38.781Z,79.94
2022-11-18T12:10:24.305Z,80.55
2022-11-18T12:13:28.796Z,81.14
2022-11-18T12:16:30.006Z,81.05
2022-11-18T12:19:02.610Z,81.40
2022-11-18T12:21:47.607Z,81.59
2022-11-18T12:24:31.323Z,81.42
2022-11-18T12:27:01.107Z,81.54
2022-11-18T12:29:36.364Z,81.45
2022-11-18T12:32:04.653Z,82.00
2022-11-18T12:34:44.181Z,81.85
2022-11-18T12:37:26.331Z,81.91
2022-11-18T12:39:56.157Z,82.39
2022-11-18T12:43:05.065Z,82.23
2022-11-18T12:45:38.147Z,82.39
2022-11-18T12:48:05.658Z,82.50
2022-11-18T12:51:21.779Z,83.26
2022-11-18T12:53:51.590Z,83.67
2022-11-18T12:56:18.493Z,84.83
2022-11-18T12:58:50.145Z,84.43
2022-11-18T13:01:20.248Z,84.60
2022-11-18T13:03:47.948Z,84.83
2022-11-18T13:06:25.573Z,85.06
2022-11-18T13:09:05.179Z,85.37
2022-11-18T13:11:46.930Z,84.72
2022-11-18T13:14:38.145Z,85.17
2022-11-18T13:17:42.973Z,84.88
2022-11-18T13:20:33.639Z,84.42
2022-11-18T13:23:20.707Z,85.26
2022-11-18T13:25:49.808Z,85.34
2022-11-18T13:28:47.467Z,85.40
2022-11-18T13:31:35.914Z,85.70
2022-11-18T13:34:09.321Z,85.77
2022-11-18T13:36:44.539Z,86.42
2022-11-18T13:39:29.434Z,86.12
2022-11-18T13:42:14.169Z,85.72
2022-11-18T13:44:46.415Z,86.19
2022-11-18T13:47:25.554Z,86.65
2022-11-18T13:50:25.399Z,86.36
2022-11-18T13:53:04.727Z,86.90
2022-11-18T13:55:36.651Z,86.71
2022-11-18T13:58:07.918Z,86.81
2022-11-18T14:00:36.594Z,87.02
2022-11-18T14:03:24.223Z,87.12
2022-11-18T14:05:58.981Z,87.06
2022-11-18T14:08:32.144Z,87.58
2022-11-18T14:11:00.091Z,87.50
2022-11-18T14:13:33.221Z,87.76
2022-11-18T14:16:18.674Z,87.56
2022-11-18T14:18:48.818Z,87.59
2022-11-18T14:21:28.578Z,87.87
2022-11-18T14:23:55.810Z,88.25
2022-11-18T14:26:37.555Z,88.54
2022-11-18T14:29:22.995Z,89.48
2022-11-18T14:32:04.918Z,89.34
2022-11-18T14:34:32.124Z,89.86
2022-11-18T14:36:59.153Z,89.52
2022-11-18T14:39:29.052Z,89.77
2022-11-18T14:41:56.916Z,90.30
2022-11-18T14:44:26.572Z,89.99
2022-11-18T14:46:58.682Z,89.79
2022-11-18T18:14:51.776Z,100.00
2022-11-18T18:17:19.696Z,100.00
2022-11-18T18:19:46.799Z,100.00
2022-11-18T18:22:14.307Z,100.00
2022-11-18T18:24:41.462Z,100.00
2022-11-18T18:27:08.516Z,100.00
2022-11-18T18:29:35.724Z,100.00
2022-11-18T18:32:03.855Z,100.00
2022-11-18T18:34:31.371Z,100.00
2022-11-18T18:36:58.860Z,100.00
2022-11-18T18:39:25.952Z,100.00
2022-11-18T18:41:53.178Z,100.00
2022-11-18T18:44:20.886Z,100.00
2022-11-18T18:46:48.194Z,100.00
2022-11-18T18:49:16.302Z,100.00
2022-11-18T18:51:45.786Z,100.00
2022-11-18T18:54:16.396Z,100.00
2022-11-18T18:56:44.306Z,100.00
2022-11-18T18:59:11.818Z,100.00
2022-11-18T19:01:39.927Z,100.00
2022-11-18T19:04:08.172Z,100.00
2022-11-18T19:09:28.135Z,100.00
2022-11-18T19:12:14.217Z,100.00
2022-11-18T19:14:41.415Z,100.00
2022-11-18T19:17:12.083Z,100.00
2022-11-18T19:19:59.734Z,100.00
2022-11-18T19:22:30.818Z,100.00
2022-11-18T19:24:58.616Z,100.00
2022-11-18T19:27:26.092Z,100.00
2022-11-18T19:29:53.282Z,100.00
2022-11-18T19:32:20.505Z,100.00
2022-11-18T19:34:47.520Z,100.00
2022-11-18T19:37:14.609Z,100.00
2022-11-18T19:39:41.785Z,100.00
2022-11-18T19:42:11.198Z,100.00
2022-11-18T19:44:39.200Z,100.00
2022-11-18T19:47:06.546Z,100.00
2022-11-18T19:49:33.745Z,100.00
2022-11-18T19:52:00.761Z,100.00
2022-11-18T19:54:27.633Z,100.00
2022-11-18T19:56:54.754Z,100.00
2022-11-18T19:59:21.820Z,100.00
2022-11-18T20:01:49.130Z,100.00
2022-11-18T20:04:16.190Z,100.00
2022-11-18T20:06:43.060Z,100.00
2022-11-18T20:09:11.188Z,100.00
2022-11-18T20:11:38.600Z,100.00
2022-11-18T20:14:06.459Z,100.00
2022-11-18T20:16:33.807Z,100.00
2022-11-18T20:19:08.029Z,100.00
2022-11-18T20:21:39.288Z,100.00
2022-11-18T20:24:08.252Z,100.00
2022-11-18T20:26:38.600Z,100.00
2022-11-18T20:29:06.792Z,100.00
2022-11-18T20:31:34.826Z,100.00
2022-11-18T20:34:02.576Z,100.00
2022-11-18T20:36:31.545Z,100.00
2022-11-18T20:39:01.102Z,100.00
2022-11-18T20:41:30.537Z,100.00
2022-11-18T20:43:58.211Z,100.00
2022-11-18T20:46:25.675Z,100.00
2022-11-18T20:48:52.791Z,100.00
2022-11-18T20:51:24.800Z,100.00
2022-11-18T20:53:53.318Z,100.00
2022-11-18T20:56:22.127Z,100.00
2022-11-18T20:58:49.360Z,100.00
2022-11-18T21:01:18.844Z,100.00
2022-11-18T21:04:04.520Z,100.00
2022-11-18T21:06:32.572Z,100.00
2022-11-18T21:09:02.647Z,100.00
2022-11-18T21:11:30.677Z,100.00
2022-11-18T21:14:21.511Z,100.00
2022-11-18T21:16:51.248Z,100.00
2022-11-18T21:19:18.622Z,100.00
2022-11-18T21:21:45.806Z,100.00
2022-11-18T21:24:17.849Z,100.00
2022-11-18T21:26:46.631Z,100.00
2022-11-18T21:29:15.416Z,100.00
2022-11-18T21:31:43.652Z,100.00
2022-11-18T21:34:11.052Z,100.00
2022-11-18T21:36:45.086Z,100.00
2022-11-18T21:39:15.007Z,100.00
2022-11-18T21:41:42.693Z,100.00
2022-11-18T21:44:14.316Z,100.00
2022-11-18T21:46:42.395Z,100.00
2022-11-18T21:49:09.707Z,100.00
2022-11-18T21:51:37.132Z,100.00
2022-11-18T21:54:04.531Z,100.00
2022-11-18T21:56:31.968Z,100.00
2022-11-18T21:59:01.163Z,100.00
2022-11-18T22:01:31.510Z,100.00
2022-11-18T22:04:00.558Z,100.00
2022-11-18T22:06:33.634Z,100.00
2022-11-18T22:09:02.257Z,100.00
2022-11-18T22:11:29.362Z,100.00
2022-11-18T22:13:56.284Z,100.00
2022-11-18T22:16:24.848Z,100.00
2022-11-18T22:18:59.088Z,100.00
2022-11-18T22:21:28.356Z,100.00
2022-11-18T22:24:00.337Z,100.00
2022-11-18T22:26:28.328Z,100.00
2022-11-18T22:28:57.688Z,100.00
2022-11-18T22:31:26.758Z,100.00
2022-11-18T22:33:55.547Z,100.00
2022-11-18T22:36:26.254Z,100.00
2022-11-18T22:38:54.061Z,100.00
2022-11-18T22:41:42.531Z,100.00
2022-11-18T22:44:10.834Z,100.00
2022-11-18T22:46:39.433Z,100.00
2022-11-18T22:49:07.845Z,100.00
2022-11-18T22:51:36.345Z,100.00
2022-11-18T22:54:36.323Z,100.00
2022-11-18T22:56:51.069Z,100.00
2022-11-18T22:59:18.155Z,100.00
2022-11-18T23:01:45.340Z,100.00
2022-11-18T23:04:12.340Z,100.00
2022-11-18T23:06:39.235Z,100.00
2022-11-18T23:09:06.091Z,100.00
2022-11-18T23:11:51.772Z,100.00
2022-11-18T23:14:18.622Z,100.00
2022-11-18T23:16:45.563Z,100.00
2022-11-18T23:19:15.361Z,100.00
2022-11-18T23:21:43.202Z,100.00
2022-11-18T23:24:14.589Z,100.00
2022-11-18T23:26:42.243Z,100.00
2022-11-18T23:29:10.793Z,100.00
2022-11-18T23:31:41.464Z,100.00
2022-11-18T23:34:11.589Z,100.00
2022-11-18T23:36:38.645Z,100.00
2022-11-18T23:39:06.130Z,100.00
2022-11-18T23:41:33.297Z,100.00
2022-11-18T23:44:00.157Z,100.00
2022-11-18T23:46:27.816Z,100.00
2022-11-18T23:48:55.199Z,100.00
2022-11-18T23:51:23.762Z,100.00
2022-11-18T23:53:56.126Z,100.00
2022-11-18T23:56:25.817Z,100.00
2022-11-18T23:58:54.829Z,100.00
